Time;durP1;ratioP1;P1;durP2;ratioP2;P2;SDS_P1;SDS_P2;PMS_P1;PMS_P2;Temp;Humidity;BMP_temperature;BMP_pressure;BME280_temperature;BME280_humidity;BME280_pressure;Samples;Min_cycle;Max_cycle;Signal;HPM_P1;HPM_P2
2023/02/12 00:02:08;;;;;;;;;;;;;;;3.21;90.37;98387.25;5093451;28;19944;-76
2023/02/12 00:04:34;;;;;;;;;;;;;;;3.22;92.97;98401.03;5088328;28;19966;-76
2023/02/12 00:07:00;;;;;;;;;;;;;;;3.27;91.06;98374.72;5093899;28;19947;-76
2023/02/12 00:09:26;;;;;;;;;;;;;;;3.31;90.28;98373.53;5081295;28;19993;-76
2023/02/12 00:11:52;;;;;;;;;;;;;;;3.31;89.88;98370.94;5093579;28;19959;-76
2023/02/12 00:14:18;;;;;;;;;;;;;;;3.30;89.76;98374.47;5084277;28;19958;-75
2023/02/12 00:16:44;;;;;;;;;;;;;;;3.29;89.72;98371.06;5092824;28;19953;-75
2023/02/12 00:19:09;;;;;;;;;;;;;;;3.28;89.64;98369.44;5092500;28;19965;-75
2023/02/12 00:21:35;;;;;;;;;;;;;;;3.28;89.98;98369.44;5089018;28;19967;-75
2023/02/12 00:24:01;;;;;;;;;;;;;;;3.28;89.83;98369.44;5093361;28;19966;-75
2023/02/12 00:26:27;;;;;;;;;;;;;;;3.28;90.20;98379.81;5089775;28;19964;-76
2023/02/12 00:28:53;;;;;;;;;;;;;;;3.28;90.14;98377.22;5090690;28;20371;-76
2023/02/12 00:31:20;;;;;;;;;;;;;;;3.28;90.39;98384.19;5093629;28;19947;-76
2023/02/12 00:33:46;;;;;;;;;;;;;;;3.27;90.03;98385.09;5087870;28;19956;-75
2023/02/12 00:36:14;;;;;;;;;;;;;;;3.26;90.23;98392.06;5072910;28;20038;-76
2023/02/12 00:38:39;;;;;;;;;;;;;;;3.25;90.22;98385.22;5074513;28;19951;-76
2023/02/12 00:41:05;;;;;;;;;;;;;;;3.26;90.47;98389.47;5090624;28;19988;-76
2023/02/12 00:43:31;;;;;;;;;;;;;;;3.27;90.83;98395.47;5093191;28;19984;-76
2023/02/12 00:45:57;;;;;;;;;;;;;;;3.25;90.81;98395.59;5090571;28;20041;-75
2023/02/12 00:48:23;;;;;;;;;;;;;;;3.24;90.80;98393.97;5072068;28;20431;-77
2023/02/12 00:50:49;;;;;;;;;;;;;;;3.25;91.04;98390.41;5079392;28;19950;-76
2023/02/12 00:53:15;;;;;;;;;;;;;;;3.24;91.87;98394.78;5095868;28;19960;-76
2023/02/12 00:55:41;;;;;;;;;;;;;;;3.25;91.77;98400.78;5094343;28;20374;-75
2023/02/12 00:58:06;;;;;;;;;;;;;;;3.22;92.18;98403.63;5095630;28;19958;-75
2023/02/12 01:00:32;;;;;;;;;;;;;;;3.20;92.18;98398.56;5095561;28;20069;-76
2023/02/12 01:02:58;;;;;;;;;;;;;;;3.21;92.44;98395.03;5095672;28;20454;-76
2023/02/12 01:05:24;;;;;;;;;;;;;;;3.21;92.20;98404.56;5095581;28;19970;-76
2023/02/12 01:07:51;;;;;;;;;;;;;;;3.22;91.94;98395.84;5096618;28;19956;-76
2023/02/12 01:10:17;;;;;;;;;;;;;;;3.24;91.87;98406.94;5095607;28;19964;-76
2023/02/12 01:12:43;;;;;;;;;;;;;;;3.24;92.20;98404.34;5096755;28;19970;-76
2023/02/12 01:15:11;;;;;;;;;;;;;;;3.24;92.01;98407.75;5096366;28;20004;-76
2023/02/12 01:17:37;;;;;;;;;;;;;;;3.23;92.53;98405.25;5097272;28;19947;-77
2023/02/12 01:20:06;;;;;;;;;;;;;;;3.23;91.93;98395.75;5091301;28;19957;-77
2023/02/12 01:22:35;;;;;;;;;;;;;;;3.24;91.93;98389.59;5096417;28;20008;-77
2023/02/12 01:25:01;;;;;;;;;;;;;;;3.23;92.08;98398.34;5090779;28;19964;-76
2023/02/12 01:27:27;;;;;;;;;;;;;;;3.24;92.02;98394.78;5096437;28;19949;-77
2023/02/12 01:29:53;;;;;;;;;;;;;;;3.24;91.96;98391.38;5095176;28;19960;-77
2023/02/12 01:32:18;;;;;;;;;;;;;;;3.24;92.21;98388.78;5078311;28;19952;-77
2023/02/12 01:34:44;;;;;;;;;;;;;;;3.24;92.65;98391.38;5094886;28;20001;-76
2023/02/12 01:37:10;;;;;;;;;;;;;;;3.25;92.48;98399.03;5076999;28;19953;-77
2023/02/12 01:39:36;;;;;;;;;;;;;;;3.24;92.09;98394.78;5095342;28;19955;-76
2023/02/12 01:42:02;;;;;;;;;;;;;;;3.24;92.90;98396.56;5088400;28;19960;-75
2023/02/12 01:44:30;;;;;;;;;;;;;;;3.24;92.45;98391.38;5091538;28;19973;-76
2023/02/12 01:46:59;;;;;;;;;;;;;;;3.23;92.45;98390.56;5080042;28;20319;-75
2023/02/12 01:49:30;;;;;;;;;;;;;;;3.24;92.61;98383.59;5095007;28;20316;-76
2023/02/12 01:52:04;;;;;;;;;;;;;;;3.24;93.00;98392.19;5095837;28;19957;-76
2023/02/12 01:54:30;;;;;;;;;;;;;;;3.23;93.70;98400.06;5073610;28;19956;-76
2023/02/12 01:56:56;;;;;;;;;;;;;;;3.23;93.65;98403.53;5090428;28;19948;-76
2023/02/12 01:59:23;;;;;;;;;;;;;;;3.24;93.60;98393.97;5092269;28;20296;-77
2023/02/12 02:01:48;;;;;;;;;;;;;;;3.24;93.06;98387.00;5094511;28;20342;-76
2023/02/12 02:04:18;;;;;;;;;;;;;;;3.25;93.49;98387.81;5072809;28;19944;-76
2023/02/12 02:07:17;;;;;;;;;;;;;;;3.24;93.40;98386.19;5078154;28;19949;-76
2023/02/12 02:09:43;;;;;;;;;;;;;;;3.23;93.21;98389.72;5048698;28;19978;-77
2023/02/12 02:14:55;;;;;;;;;;;;;;;3.22;93.77;98382.88;5078991;28;20329;-76
2023/02/12 02:17:24;;;;;;;;;;;;;;;3.24;93.98;98386.19;5094754;28;19948;-76
2023/02/12 02:20:00;;;;;;;;;;;;;;;3.22;94.60;98382.88;5092480;28;19949;-76
2023/02/12 02:22:46;;;;;;;;;;;;;;;3.21;94.30;98373.44;5088562;28;20321;-76
2023/02/12 02:25:18;;;;;;;;;;;;;;;3.21;94.63;98369.09;5092785;28;20350;-75
2023/02/12 02:27:44;;;;;;;;;;;;;;;3.20;95.01;98374.41;5095828;28;19949;-76
2023/02/12 02:30:28;;;;;;;;;;;;;;;3.20;94.73;98364.03;5075957;28;19952;-76
2023/02/12 02:32:56;;;;;;;;;;;;;;;3.20;94.98;98362.25;5095587;28;19948;-76
2023/02/12 02:35:27;;;;;;;;;;;;;;;3.21;94.99;98363.06;5089438;28;19975;-76
2023/02/12 02:37:53;;;;;;;;;;;;;;;3.22;95.66;98360.38;5094202;28;19944;-76
2023/02/12 02:40:23;;;;;;;;;;;;;;;3.22;95.14;98355.19;5091910;28;19949;-76
2023/02/12 02:42:53;;;;;;;;;;;;;;;3.23;95.59;98364.63;5076910;28;19972;-76
2023/02/12 02:45:27;;;;;;;;;;;;;;;3.23;95.59;98362.03;5094193;28;19970;-76
2023/02/12 02:47:57;;;;;;;;;;;;;;;3.25;95.62;98367.91;5094987;28;19954;-76
2023/02/12 02:50:24;;;;;;;;;;;;;;;3.25;98.89;98378.28;5092716;28;19999;-76
2023/02/12 02:52:56;;;;;;;;;;;;;;;3.18;97.51;98364.16;5094874;28;19946;-76
2023/02/12 02:55:24;;;;;;;;;;;;;;;3.14;96.80;98356.75;5093410;28;19961;-76
2023/02/12 02:57:54;;;;;;;;;;;;;;;3.11;96.91;98355.25;5094691;28;19955;-76
2023/02/12 03:00:23;;;;;;;;;;;;;;;3.08;95.62;98352.06;5089932;28;19951;-76
2023/02/12 03:02:52;;;;;;;;;;;;;;;3.05;95.07;98358.31;5092482;28;19963;-75
2023/02/12 03:05:23;;;;;;;;;;;;;;;3.03;95.50;98352.44;5075244;28;19975;-75
2023/02/12 03:07:52;;;;;;;;;;;;;;;3.04;94.78;98348.88;5094895;28;19969;-76
2023/02/12 03:10:41;;;;;;;;;;;;;;;3.02;95.09;98350.78;5075800;28;20439;-76
2023/02/12 03:13:11;;;;;;;;;;;;;;;3.00;95.40;98344.88;5081151;28;19971;-75
2023/02/12 03:15:39;;;;;;;;;;;;;;;3.00;95.93;98350.06;5093505;28;19958;-75
2023/02/12 03:18:08;;;;;;;;;;;;;;;2.97;95.46;98358.91;5091431;28;19958;-76
2023/02/12 03:20:38;;;;;;;;;;;;;;;2.96;95.22;98353.84;5087773;28;19951;-75
2023/02/12 03:23:08;;;;;;;;;;;;;;;2.89;95.80;98361.31;5079613;28;19962;-76
2023/02/12 03:25:37;;;;;;;;;;;;;;;2.86;95.89;98361.56;5090381;28;19989;-76
2023/02/12 03:28:08;;;;;;;;;;;;;;;2.86;96.22;98358.97;5094180;28;19952;-76
2023/02/12 03:30:43;;;;;;;;;;;;;;;2.85;96.31;98360.72;5084105;28;20312;-75
2023/02/12 03:33:15;;;;;;;;;;;;;;;2.87;95.99;98364.97;5079109;28;19960;-76
2023/02/12 03:35:44;;;;;;;;;;;;;;;2.86;96.25;98371.91;5090425;28;20021;-75
2023/02/12 03:38:16;;;;;;;;;;;;;;;2.83;96.53;98365.22;5094013;28;19956;-76
2023/02/12 03:40:46;;;;;;;;;;;;;;;2.85;96.46;98380.63;5088723;28;20389;-76
2023/02/12 03:43:28;;;;;;;;;;;;;;;2.86;96.59;98379.69;5091475;28;19979;-75
2023/02/12 03:45:57;;;;;;;;;;;;;;;2.86;96.42;98369.34;5092625;28;19971;-75
2023/02/12 03:48:27;;;;;;;;;;;;;;;2.88;96.95;98372.63;5093798;28;19952;-75
2023/02/12 03:51:11;;;;;;;;;;;;;;;2.89;96.98;98373.44;5092382;28;19959;-76
2023/02/12 03:53:37;;;;;;;;;;;;;;;2.87;97.23;98375.34;5091369;28;19957;-75
2023/02/12 03:56:07;;;;;;;;;;;;;;;2.87;96.89;98383.09;5093601;28;20038;-76
2023/02/12 03:58:34;;;;;;;;;;;;;;;2.87;97.24;98383.91;5092420;28;19987;-76
2023/02/12 04:01:01;;;;;;;;;;;;;;;2.87;97.15;98375.34;5058545;28;19955;-76
2023/02/12 04:03:28;;;;;;;;;;;;;;;2.88;97.00;98371.78;5084427;28;19952;-76
2023/02/12 04:05:54;;;;;;;;;;;;;;;2.87;97.04;98375.34;5092183;28;19971;-76
2023/02/12 04:08:19;;;;;;;;;;;;;;;2.86;96.93;98366.75;5085911;28;19960;-75
2023/02/12 04:11:06;;;;;;;;;;;;;;;2.86;97.14;98374.50;5090262;28;19956;-76
2023/02/12 04:13:49;;;;;;;;;;;;;;;2.88;97.29;98385.59;5092829;28;19958;-76
2023/02/12 04:16:28;;;;;;;;;;;;;;;2.87;97.17;98375.34;5093597;28;19950;-76
2023/02/12 04:18:54;;;;;;;;;;;;;;;2.88;97.24;98369.19;5082454;28;19952;-76
2023/02/12 04:21:36;;;;;;;;;;;;;;;2.88;97.30;98375.22;5097456;28;19968;-75
2023/02/12 04:24:16;;;;;;;;;;;;;;;2.88;97.26;98374.38;5096443;28;19965;-75
2023/02/12 04:26:48;;;;;;;;;;;;;;;2.88;96.98;98377.81;5097729;28;20429;-75
2023/02/12 04:29:17;;;;;;;;;;;;;;;2.88;96.67;98385.59;5096268;28;19950;-75
2023/02/12 04:31:55;;;;;;;;;;;;;;;2.88;97.26;98388.19;5097763;28;19976;-76
2023/02/12 04:34:39;;;;;;;;;;;;;;;2.88;96.99;98389.91;5069131;28;19958;-75
2023/02/12 04:37:15;;;;;;;;;;;;;;;2.89;97.28;98395.00;5097196;28;19945;-76
2023/02/12 04:39:43;;;;;;;;;;;;;;;2.89;96.99;98389.81;5096419;28;19957;-76
2023/02/12 04:42:09;;;;;;;;;;;;;;;2.87;97.18;98391.69;5097266;28;19985;-76
2023/02/12 04:44:37;;;;;;;;;;;;;;;2.88;97.20;98389.91;5090530;28;19966;-76
2023/02/12 04:47:03;;;;;;;;;;;;;;;2.88;97.69;98389.91;5093455;28;19959;-76
2023/02/12 04:49:29;;;;;;;;;;;;;;;2.88;97.68;98398.53;5086569;28;19993;-79
2023/02/12 04:51:55;;;;;;;;;;;;;;;2.89;98.50;98401.94;5095806;28;20062;-76
2023/02/12 04:54:22;;;;;;;;;;;;;;;2.88;97.99;98392.50;5095151;28;19959;-75
2023/02/12 04:56:48;;;;;;;;;;;;;;;2.89;98.11;98401.94;5085760;28;19953;-80
2023/02/12 04:59:15;;;;;;;;;;;;;;;2.88;98.31;98393.34;5093742;28;20334;-76
2023/02/12 05:01:41;;;;;;;;;;;;;;;2.89;98.44;98399.34;5096767;28;19950;-76
2023/02/12 05:04:07;;;;;;;;;;;;;;;2.88;98.40;98395.94;5084967;28;19966;-76
2023/02/12 05:06:34;;;;;;;;;;;;;;;2.88;98.61;98395.09;5078547;28;19954;-76
2023/02/12 05:09:00;;;;;;;;;;;;;;;2.87;99.00;98396.88;5095783;28;19950;-76
2023/02/12 05:11:26;;;;;;;;;;;;;;;2.88;99.24;98393.34;5075562;28;20030;-77
2023/02/12 05:13:52;;;;;;;;;;;;;;;2.87;99.47;98393.47;5084599;28;19956;-76
2023/02/12 05:16:19;;;;;;;;;;;;;;;2.87;99.85;98401.25;5094065;28;19951;-76
2023/02/12 05:18:45;;;;;;;;;;;;;;;2.88;100.00;98401.13;5090029;28;20434;-75
2023/02/12 05:21:11;;;;;;;;;;;;;;;2.87;100.00;98394.28;5095517;28;19957;-76
2023/02/12 05:23:37;;;;;;;;;;;;;;;2.88;100.00;98401.13;5093996;28;19956;-75
2023/02/12 05:26:05;;;;;;;;;;;;;;;2.88;100.00;98401.13;5094928;28;19970;-75
2023/02/12 05:28:31;;;;;;;;;;;;;;;2.89;100.00;98394.16;5096584;28;19955;-75
2023/02/12 05:31:01;;;;;;;;;;;;;;;2.89;100.00;98391.59;5074117;28;19952;-77
2023/02/12 05:33:27;;;;;;;;;;;;;;;2.90;100.00;98390.63;5094003;28;19959;-76
2023/02/12 05:35:54;;;;;;;;;;;;;;;2.90;100.00;98396.66;5077178;28;20409;-75
2023/02/12 05:38:20;;;;;;;;;;;;;;;2.91;100.00;98394.88;5096080;28;19948;-77
2023/02/12 05:40:46;;;;;;;;;;;;;;;2.89;100.00;98395.00;5076966;28;19960;-76
2023/02/12 05:43:12;;;;;;;;;;;;;;;2.88;100.00;98393.34;5096416;28;20006;-76
2023/02/12 05:45:40;;;;;;;;;;;;;;;2.88;100.00;98390.75;5088812;28;20068;-75
2023/02/12 05:48:06;;;;;;;;;;;;;;;2.85;100.00;98381.44;5071361;28;19950;-75
2023/02/12 05:50:32;;;;;;;;;;;;;;;2.83;100.00;98390.28;5071532;28;19955;-76
2023/02/12 05:52:58;;;;;;;;;;;;;;;2.82;100.00;98383.47;5096277;28;19956;-76
2023/02/12 05:55:24;;;;;;;;;;;;;;;2.81;100.00;98381.81;5093411;28;19960;-76
2023/02/12 05:57:50;;;;;;;;;;;;;;;2.79;100.00;98383.69;5096386;28;20361;-75
2023/02/12 06:00:16;;;;;;;;;;;;;;;2.79;100.00;98387.13;5094381;28;20365;-76
2023/02/12 06:02:42;;;;;;;;;;;;;;;2.79;100.00;98383.69;5095799;28;20011;-76
2023/02/12 06:05:08;;;;;;;;;;;;;;;2.78;100.00;98379.47;5092398;28;19973;-76
2023/02/12 06:07:34;;;;;;;;;;;;;;;2.77;100.00;98388.19;5095526;28;19953;-75
2023/02/12 06:10:00;;;;;;;;;;;;;;;2.77;100.00;98378.66;5094016;28;19955;-76
2023/02/12 06:12:25;;;;;;;;;;;;;;;2.76;100.00;98384.78;5077558;28;19955;-76
2023/02/12 06:14:51;;;;;;;;;;;;;;;2.75;100.00;98380.53;5087062;28;20043;-77
2023/02/12 06:17:17;;;;;;;;;;;;;;;2.74;100.00;98381.47;5077798;28;19949;-75
2023/02/12 06:19:43;;;;;;;;;;;;;;;2.75;100.00;98384.88;5072146;28;20016;-76
2023/02/12 06:22:09;;;;;;;;;;;;;;;2.75;100.00;98388.31;5095639;28;19994;-75
2023/02/12 06:24:36;;;;;;;;;;;;;;;2.75;100.00;98392.66;5093668;28;19970;-76
2023/02/12 06:27:01;;;;;;;;;;;;;;;2.74;100.00;98398.78;5094664;28;19952;-74
2023/02/12 06:29:27;;;;;;;;;;;;;;;2.72;100.00;98396.31;5092274;28;19992;-76
2023/02/12 06:31:53;;;;;;;;;;;;;;;2.63;100.00;98389.28;5087771;28;19957;-75
2023/02/12 06:34:19;;;;;;;;;;;;;;;2.56;100.00;98395.84;5076365;28;19953;-75
2023/02/12 06:36:46;;;;;;;;;;;;;;;2.55;100.00;98391.63;5079575;28;20415;-76
2023/02/12 06:39:12;;;;;;;;;;;;;;;2.54;100.00;98396.00;5091652;28;19956;-76
2023/02/12 06:41:38;;;;;;;;;;;;;;;2.57;100.00;98394.94;5094000;28;19963;-77
2023/02/12 06:44:05;;;;;;;;;;;;;;;2.58;100.00;98402.59;5076404;28;19982;-76
2023/02/12 06:46:31;;;;;;;;;;;;;;;2.61;100.00;98397.16;5091050;28;19972;-76
2023/02/12 06:48:58;;;;;;;;;;;;;;;2.83;100.00;98395.47;5078846;28;19953;-79
2023/02/12 06:51:24;;;;;;;;;;;;;;;3.16;100.00;98396.34;5085709;28;19960;-80
2023/02/12 06:53:51;;;;;;;;;;;;;;;3.49;100.00;98385.03;5103204;28;20339;-78
2023/02/12 06:56:17;;;;;;;;;;;;;;;3.80;100.00;98392.88;5099981;28;19946;-78
2023/02/12 06:58:45;;;;;;;;;;;;;;;4.04;100.00;98395.22;5093202;28;20038;-77
2023/02/12 07:01:12;;;;;;;;;;;;;;;4.23;100.00;98387.50;5084441;28;19948;-76
2023/02/12 07:03:39;;;;;;;;;;;;;;;4.42;100.00;98389.38;5093059;28;19954;-77
2023/02/12 07:06:05;;;;;;;;;;;;;;;4.59;100.00;98389.72;5076646;28;19964;-76
2023/02/12 07:08:31;;;;;;;;;;;;;;;4.74;100.00;98392.75;5091380;28;19960;-76
2023/02/12 07:10:56;;;;;;;;;;;;;;;4.74;98.80;98370.19;5092258;28;20036;-77
2023/02/12 07:13:22;;;;;;;;;;;;;;;4.62;97.22;98359.09;5093283;28;20009;-76
2023/02/12 07:15:48;;;;;;;;;;;;;;;4.46;96.99;98369.97;5094551;28;19961;-77
2023/02/12 07:18:14;;;;;;;;;;;;;;;4.35;97.49;98374.47;5092492;28;20036;-77
2023/02/12 07:20:40;;;;;;;;;;;;;;;4.28;97.78;98379.31;5094524;28;19956;-76
2023/02/12 07:23:09;;;;;;;;;;;;;;;4.26;98.02;98382.06;5069962;28;20004;-77
2023/02/12 07:25:35;;;;;;;;;;;;;;;4.45;98.38;98381.31;5093660;28;19966;-76
2023/02/12 07:28:01;;;;;;;;;;;;;;;4.85;97.27;98372.69;5087633;28;19958;-76
2023/02/12 07:30:27;;;;;;;;;;;;;;;5.25;95.74;98363.97;5074237;28;19952;-77
2023/02/12 07:32:52;;;;;;;;;;;;;;;5.62;94.33;98349.41;5087938;28;20007;-78
2023/02/12 07:35:18;;;;;;;;;;;;;;;5.96;92.88;98349.78;5094365;28;19954;-77
2023/02/12 07:37:44;;;;;;;;;;;;;;;6.28;91.46;98340.78;5090549;28;20009;-76
2023/02/12 07:40:10;;;;;;;;;;;;;;;6.63;89.61;98336.63;5093795;28;19977;-76
2023/02/12 07:42:36;;;;;;;;;;;;;;;6.91;88.15;98332.19;5092331;28;19978;-77
2023/02/12 07:45:02;;;;;;;;;;;;;;;7.17;86.42;98306.19;5094125;28;20486;-76
2023/02/12 07:47:28;;;;;;;;;;;;;;;7.35;85.33;98303.56;5092623;28;19951;-76
2023/02/12 07:49:54;;;;;;;;;;;;;;;7.51;84.64;98301.06;5080899;28;20074;-76
2023/02/12 07:52:20;;;;;;;;;;;;;;;7.66;83.98;98295.28;5092092;28;19958;-76
2023/02/12 07:54:46;;;;;;;;;;;;;;;7.73;83.98;98298.94;5092978;28;20457;-76
2023/02/12 07:57:12;;;;;;;;;;;;;;;7.77;82.82;98292.44;5092364;28;19951;-76
2023/02/12 07:59:38;;;;;;;;;;;;;;;7.74;83.26;98295.31;5092251;28;19961;-75
2023/02/12 08:02:04;;;;;;;;;;;;;;;7.41;83.44;98295.13;5092348;28;19958;-76
2023/02/12 08:04:29;;;;;;;;;;;;;;;7.01;84.00;98301.63;5093648;28;20001;-77
2023/02/12 08:06:55;;;;;;;;;;;;;;;6.66;85.10;98320.69;5092593;28;19954;-76
2023/02/12 08:09:23;;;;;;;;;;;;;;;6.38;86.37;98330.28;5092171;28;20055;-76
2023/02/12 08:11:50;;;;;;;;;;;;;;;6.17;87.30;98338.34;5093470;28;19966;-76
2023/02/12 08:14:17;;;;;;;;;;;;;;;6.07;88.27;98348.81;5091555;28;19955;-76
2023/02/12 08:16:44;;;;;;;;;;;;;;;6.00;88.94;98353.75;5093768;28;19949;-76
2023/02/12 08:19:10;;;;;;;;;;;;;;;5.86;89.54;98356.78;5091693;28;19965;-76
2023/02/12 08:21:36;;;;;;;;;;;;;;;5.67;90.57;98360.25;5081708;28;19969;-77
2023/02/12 08:24:02;;;;;;;;;;;;;;;5.57;90.96;98370.66;5090015;28;19942;-77
2023/02/12 08:26:29;;;;;;;;;;;;;;;5.47;92.00;98373.25;5093380;28;19964;-76
2023/02/12 08:28:57;;;;;;;;;;;;;;;5.37;93.05;98375.03;5092714;28;19946;-77
2023/02/12 08:31:24;;;;;;;;;;;;;;;5.29;94.04;98382.69;5087446;28;20320;-75
2023/02/12 08:33:50;;;;;;;;;;;;;;;5.27;94.49;98382.88;5093598;28;20326;-76
2023/02/12 08:36:17;;;;;;;;;;;;;;;5.26;95.49;98383.00;5091887;28;20410;-76
2023/02/12 08:38:44;;;;;;;;;;;;;;;5.26;95.70;98390.78;5074429;28;19944;-78
2023/02/12 08:41:12;;;;;;;;;;;;;;;5.14;96.20;98391.88;5092593;28;19943;-77
2023/02/12 08:43:38;;;;;;;;;;;;;;;5.10;96.36;98393.91;5090925;28;19992;-76
2023/02/12 08:46:05;;;;;;;;;;;;;;;5.04;97.70;98402.25;5089478;28;19980;-76
2023/02/12 08:48:31;;;;;;;;;;;;;;;4.90;98.10;98400.88;5079874;28;20347;-77
2023/02/12 08:51:07;;;;;;;;;;;;;;;4.77;99.81;98408.09;5082012;28;20406;-76
2023/02/12 08:53:33;;;;;;;;;;;;;;;4.60;99.11;98397.38;5091428;28;19955;-76
2023/02/12 08:55:59;;;;;;;;;;;;;;;4.59;100.00;98407.91;5092028;28;19956;-76
2023/02/12 08:58:25;;;;;;;;;;;;;;;4.63;99.49;98399.69;5092066;28;20039;-76
2023/02/12 09:00:51;;;;;;;;;;;;;;;4.71;99.47;98395.63;5079092;28;19953;-76
2023/02/12 09:03:17;;;;;;;;;;;;;;;4.79;98.64;98393.19;5090703;28;20413;-76
2023/02/12 09:05:43;;;;;;;;;;;;;;;4.86;98.12;98395.13;5079735;28;19978;-76
2023/02/12 09:08:09;;;;;;;;;;;;;;;4.92;98.86;98396.38;5092007;28;20467;-77
2023/02/12 09:10:38;;;;;;;;;;;;;;;4.95;97.77;98377.88;5080792;28;20042;-76
2023/02/12 09:13:05;;;;;;;;;;;;;;;5.01;97.72;98392.94;5090803;28;20422;-76
2023/02/12 09:15:35;;;;;;;;;;;;;;;5.02;97.82;98394.59;5095094;28;19958;-77
2023/02/12 09:18:02;;;;;;;;;;;;;;;5.01;98.36;98398.16;5098021;28;20423;-76
2023/02/12 09:20:29;;;;;;;;;;;;;;;4.95;98.55;98396.09;5096501;28;19951;-76
2023/02/12 09:22:56;;;;;;;;;;;;;;;4.90;98.48;98402.66;5096775;28;19953;-77
2023/02/12 09:25:22;;;;;;;;;;;;;;;4.88;99.39;98403.59;5096478;28;19957;-76
2023/02/12 09:27:48;;;;;;;;;;;;;;;4.86;98.79;98402.09;5096289;28;20392;-76
2023/02/12 09:30:14;;;;;;;;;;;;;;;4.84;98.98;98404.00;5097089;28;19956;-75
2023/02/12 09:32:40;;;;;;;;;;;;;;;4.83;99.99;98410.16;5096293;28;19948;-76
2023/02/12 09:35:06;;;;;;;;;;;;;;;4.80;98.25;98403.44;5096676;28;20401;-76
2023/02/12 09:37:32;;;;;;;;;;;;;;;4.80;100.00;98419.03;5096692;28;19951;-76
2023/02/12 09:39:57;;;;;;;;;;;;;;;4.80;100.00;98418.22;5096687;28;20366;-76
2023/02/12 09:42:31;;;;;;;;;;;;;;;4.83;97.98;98400.59;5078300;28;20379;-76
2023/02/12 09:45:15;;;;;;;;;;;;;;;4.90;98.42;98408.69;5096400;28;19963;-76
2023/02/12 09:47:44;;;;;;;;;;;;;;;4.93;97.94;98407.59;5097106;28;20306;-76
2023/02/12 09:50:29;;;;;;;;;;;;;;;4.93;97.72;98405.78;5096124;28;19950;-75
2023/02/12 09:52:57;;;;;;;;;;;;;;;5.00;98.51;98413.91;5095911;28;19950;-76
2023/02/12 09:55:26;;;;;;;;;;;;;;;5.05;97.48;98402.13;5096174;28;20419;-76
2023/02/12 09:57:52;;;;;;;;;;;;;;;5.08;98.26;98407.06;5096227;28;19955;-76
2023/02/12 10:00:22;;;;;;;;;;;;;;;5.09;97.75;98400.91;5078266;28;19955;-76
2023/02/12 10:02:50;;;;;;;;;;;;;;;5.17;97.44;98412.44;5095775;28;20415;-76
2023/02/12 10:05:18;;;;;;;;;;;;;;;5.23;97.07;98396.28;5104435;28;20333;-76
2023/02/12 10:08:03;;;;;;;;;;;;;;;5.34;97.17;98403.13;5096008;28;19947;-76
2023/02/12 10:10:38;;;;;;;;;;;;;;;5.36;96.05;98394.22;5090873;28;19953;-76
2023/02/12 10:13:07;;;;;;;;;;;;;;;5.32;97.04;98398.06;5082645;28;19961;-79
2023/02/12 10:15:39;;;;;;;;;;;;;;;5.34;96.63;98403.13;5088582;28;19948;-76
2023/02/12 10:18:05;;;;;;;;;;;;;;;5.37;95.83;98389.84;5096655;28;19952;-76
2023/02/12 10:20:31;;;;;;;;;;;;;;;5.41;95.84;98389.41;5096116;28;20450;-76
2023/02/12 10:22:59;;;;;;;;;;;;;;;5.45;95.11;98385.59;5103319;28;20430;-76
2023/02/12 10:25:25;;;;;;;;;;;;;;;5.51;95.29;98388.63;5095660;28;19961;-76
2023/02/12 10:27:53;;;;;;;;;;;;;;;5.60;95.08;98379.97;5095499;28;20313;-76
2023/02/12 10:30:28;;;;;;;;;;;;;;;5.70;94.76;98376.38;5077396;28;19953;-76
2023/02/12 10:32:57;;;;;;;;;;;;;;;5.82;94.43;98371.06;5099074;28;19948;-76
2023/02/12 10:35:23;;;;;;;;;;;;;;;5.89;93.72;98362.50;5090706;28;20328;-76
2023/02/12 10:37:56;;;;;;;;;;;;;;;5.93;92.78;98363.06;5083668;28;19959;-76
2023/02/12 10:40:28;;;;;;;;;;;;;;;5.90;92.82;98358.97;5083261;28;19972;-76
2023/02/12 10:42:56;;;;;;;;;;;;;;;5.98;93.60;98360.88;5090992;28;19982;-76
2023/02/12 10:45:32;;;;;;;;;;;;;;;6.10;93.05;98362.34;5094918;28;19981;-77
2023/02/12 10:48:17;;;;;;;;;;;;;;;6.19;92.96;98359.88;5084521;28;19947;-77
2023/02/12 10:51:02;;;;;;;;;;;;;;;6.27;92.31;98347.75;5095180;28;19952;-76
2023/02/12 10:53:48;;;;;;;;;;;;;;;6.27;91.17;98341.72;5081882;28;19950;-76
2023/02/12 10:56:18;;;;;;;;;;;;;;;6.24;91.35;98342.03;5095280;28;19944;-77
2023/02/12 10:58:58;;;;;;;;;;;;;;;6.28;91.15;98338.19;5094837;28;19952;-77
2023/02/12 11:01:29;;;;;;;;;;;;;;;6.31;91.27;98335.28;5081532;28;19944;-77
2023/02/12 11:03:57;;;;;;;;;;;;;;;6.36;91.42;98332.22;5094512;28;19952;-77
2023/02/12 11:06:28;;;;;;;;;;;;;;;6.41;91.36;98343.06;5094634;28;19963;-77
2023/02/12 11:08:55;;;;;;;;;;;;;;;6.44;91.23;98340.16;5094650;28;19953;-77
2023/02/12 11:11:29;;;;;;;;;;;;;;;6.48;91.50;98346.72;5097873;28;20317;-76
2023/02/12 11:13:55;;;;;;;;;;;;;;;6.54;91.01;98340.91;5100654;28;20025;-77
2023/02/12 11:16:47;;;;;;;;;;;;;;;6.58;90.69;98337.06;5094622;28;19954;-76
2023/02/12 11:19:21;;;;;;;;;;;;;;;6.60;90.16;98329.09;5090765;28;20399;-76
2023/02/12 11:21:47;;;;;;;;;;;;;;;6.77;99.99;98372.63;5094568;28;19958;-75
2023/02/12 11:24:29;;;;;;;;;;;;;;;6.96;90.42;98305.66;5094461;28;19951;-75
2023/02/12 11:27:11;;;;;;;;;;;;;;;6.93;88.40;98304.19;5094365;28;19959;-76
2023/02/12 11:29:37;;;;;;;;;;;;;;;6.87;87.87;98300.38;5094171;28;19956;-75
2023/02/12 11:32:07;;;;;;;;;;;;;;;6.85;88.17;98299.69;5093941;28;20335;-75
2023/02/12 11:34:33;;;;;;;;;;;;;;;6.89;89.01;98308.88;5094242;28;19954;-74
2023/02/12 11:36:59;;;;;;;;;;;;;;;6.94;87.89;98300.59;5094052;28;19958;-76
2023/02/12 11:39:31;;;;;;;;;;;;;;;6.99;87.83;98293.16;5094178;28;19955;-75
2023/02/12 11:41:58;;;;;;;;;;;;;;;7.10;89.03;98299.94;5093841;28;19959;-75
2023/02/12 11:44:26;;;;;;;;;;;;;;;7.25;88.10;98289.78;5093994;28;19957;-75
2023/02/12 11:46:58;;;;;;;;;;;;;;;7.60;86.45;98277.59;5093953;28;19973;-75
2023/02/12 11:49:32;;;;;;;;;;;;;;;7.95;86.78;98279.28;5075934;28;19952;-76
2023/02/12 11:51:59;;;;;;;;;;;;;;;7.98;83.68;98260.69;5093885;28;19948;-77
2023/02/12 11:54:27;;;;;;;;;;;;;;;7.96;84.65;98269.63;5076079;28;19950;-75
2023/02/12 11:56:54;;;;;;;;;;;;;;;7.91;83.90;98252.63;5093795;28;19961;-76
2023/02/12 11:59:37;;;;;;;;;;;;;;;7.95;85.34;98271.44;5094188;28;19955;-76
2023/02/12 12:02:24;;;;;;;;;;;;;;;8.20;82.13;98243.63;5094142;28;19953;-76
2023/02/12 12:04:52;;;;;;;;;;;;;;;8.34;83.56;98261.31;5075853;28;20399;-76
2023/02/12 12:07:22;;;;;;;;;;;;;;;8.25;83.17;98249.22;5093623;28;19970;-76
2023/02/12 12:10:00;;;;;;;;;;;;;;;8.17;83.52;98250.94;5093917;28;19972;-75
2023/02/12 12:12:36;;;;;;;;;;;;;;;8.05;83.27;98253.84;5079387;28;19951;-76
2023/02/12 12:20:54;;;;;;;;;;;;;;;7.71;84.37;98259.09;5093779;28;19947;-77
2023/02/12 12:23:40;;;;;;;;;;;;;;;7.74;85.37;98264.00;5093606;28;19948;-77
2023/02/12 12:26:17;;;;;;;;;;;;;;;7.70;84.51;98260.03;5093171;28;20424;-77
2023/02/12 12:28:50;;;;;;;;;;;;;;;7.47;84.42;98257.94;5093599;28;20303;-77
2023/02/12 12:31:18;;;;;;;;;;;;;;;7.32;85.01;98268.13;5075286;28;20325;-77
2023/02/12 12:33:55;;;;;;;;;;;;;;;7.25;86.02;98274.94;5093876;28;19948;-77
2023/02/12 12:36:36;;;;;;;;;;;;;;;7.26;86.23;98271.34;5094030;28;19946;-77
2023/02/12 12:39:11;;;;;;;;;;;;;;;7.20;86.48;98269.34;5093615;28;19944;-77
2023/02/12 12:41:50;;;;;;;;;;;;;;;7.22;87.14;98274.41;5095818;28;19949;-77
2023/02/12 12:44:28;;;;;;;;;;;;;;;7.37;86.75;98264.22;5097722;28;19959;-77
2023/02/12 12:47:13;;;;;;;;;;;;;;;7.53;87.15;98270.38;5098016;28;19965;-77
2023/02/12 12:49:47;;;;;;;;;;;;;;;7.70;85.88;98260.03;5097418;28;20416;-77
2023/02/12 12:52:13;;;;;;;;;;;;;;;7.82;85.14;98250.97;5097618;28;19954;-77
2023/02/12 12:54:45;;;;;;;;;;;;;;;7.96;83.72;98233.91;5079218;28;19941;-77
2023/02/12 12:57:29;;;;;;;;;;;;;;;7.95;83.73;98228.81;5097198;28;19945;-77
2023/02/12 12:59:58;;;;;;;;;;;;;;;7.98;83.63;98236.34;5097088;28;19949;-77
2023/02/12 13:02:56;;;;;;;;;;;;;;;8.01;84.25;98241.28;5097246;28;20013;-77
2023/02/12 13:05:41;;;;;;;;;;;;;;;7.98;83.77;98228.50;5049247;28;19959;-77
2023/02/12 13:08:10;;;;;;;;;;;;;;;7.99;83.70;98232.78;5083900;28;20496;-77
2023/02/12 13:10:39;;;;;;;;;;;;;;;7.96;84.31;98236.53;5096800;28;19949;-77
2023/02/12 13:13:16;;;;;;;;;;;;;;;8.12;85.27;98239.16;5097507;28;19956;-77
2023/02/12 13:16:15;;;;;;;;;;;;;;;8.16;83.10;98225.81;5097226;28;19961;-77